Time;durP1;ratioP1;P1;durP2;ratioP2;P2;SDS_P1;SDS_P2;PMS_P1;PMS_P2;Temp;Humidity;BMP_temperature;BMP_pressure;BME280_temperature;BME280_humidity;BME280_pressure;Samples;Min_cycle;Max_cycle;Signal;HPM_P1;HPM_P2
2022/10/25 00:01:21;;;;;;;8.05;2.17;;;;;;;17.66;61.59;101037.75;5052358;28;20091;-63
2022/10/25 00:03:48;;;;;;;8.13;2.50;;;;;;;17.66;61.58;101049.50;5052392;28;20034;-62
2022/10/25 00:06:16;;;;;;;8.60;2.58;;;;;;;17.69;61.97;101049.22;5054286;28;20075;-62
2022/10/25 00:08:43;;;;;;;9.40;2.80;;;;;;;17.72;61.49;101042.63;5052516;28;20071;-62
2022/10/25 00:11:16;;;;;;;9.23;2.50;;;;;;;17.72;61.82;101043.47;5069797;28;20033;-62
2022/10/25 00:13:43;;;;;;;6.63;2.08;;;;;;;17.74;61.73;101038.75;5071362;28;20094;-63
2022/10/25 00:16:15;;;;;;;6.43;2.53;;;;;;;17.75;61.51;101036.88;5052449;28;20047;-63
2022/10/25 00:18:42;;;;;;;6.03;2.22;;;;;;;17.79;61.60;101049.16;5052375;28;20041;-62
2022/10/25 00:21:09;;;;;;;6.05;1.92;;;;;;;17.81;61.47;101051.72;5052449;28;20072;-63
2022/10/25 00:23:36;;;;;;;9.25;2.40;;;;;;;17.81;61.70;101043.59;5052247;28;20483;-64
2022/10/25 00:26:09;;;;;;;5.88;1.80;;;;;;;17.82;61.85;101048.00;5052535;28;20053;-63
2022/10/25 00:28:36;;;;;;;6.82;2.03;;;;;;;17.84;61.97;101062.31;5052319;28;20090;-63
2022/10/25 00:31:06;;;;;;;7.97;2.10;;;;;;;17.85;61.96;101061.31;5034147;28;20453;-62
2022/10/25 00:33:33;;;;;;;8.68;2.15;;;;;;;17.89;61.66;101063.59;5052080;28;20049;-62
2022/10/25 00:36:15;;;;;;;5.22;1.90;;;;;;;17.91;61.83;101058.84;5052085;28;20487;-63
2022/10/25 00:38:42;;;;;;;7.43;2.20;;;;;;;17.97;61.69;101068.28;5052245;28;20053;-63
2022/10/25 00:41:10;;;;;;;7.70;1.92;;;;;;;17.99;61.59;101060.81;5064313;28;20045;-63
2022/10/25 00:43:40;;;;;;;9.60;2.05;;;;;;;18.00;61.70;101063.38;5071839;28;20060;-62
2022/10/25 00:46:27;;;;;;;6.47;2.45;;;;;;;18.02;62.06;101063.22;5072055;28;20049;-63
2022/10/25 00:49:17;;;;;;;6.47;1.90;;;;;;;18.04;62.01;101069.38;5071900;28;20078;-63
2022/10/25 00:51:47;;;;;;;8.55;2.15;;;;;;;18.02;61.66;101065.94;5057455;28;20045;-63
2022/10/25 00:54:21;;;;;;;5.25;1.83;;;;;;;17.99;61.43;101067.09;5074979;28;20086;-63
2022/10/25 00:56:55;;;;;;;8.18;2.13;;;;;;;17.97;61.43;101077.28;5075791;28;20124;-63
2022/10/25 00:59:25;;;;;;;7.25;2.60;;;;;;;17.96;61.74;101077.44;5074900;28;20049;-63
2022/10/25 01:01:54;;;;;;;7.53;2.20;;;;;;;17.96;61.94;101082.88;5074862;28;20044;-63
2022/10/25 01:04:26;;;;;;;8.77;2.20;;;;;;;17.96;61.79;101077.44;5075044;28;20468;-63
2022/10/25 01:06:53;;;;;;;9.20;2.40;;;;;;;17.97;61.86;101073.69;5074751;28;20040;-63
2022/10/25 01:09:29;;;;;;;6.25;2.15;;;;;;;17.95;61.44;101076.56;5072517;28;20032;-62
2022/10/25 01:11:56;;;;;;;8.57;2.60;;;;;;;17.96;61.48;101072.00;5054905;28;20285;-62
2022/10/25 01:14:23;;;;;;;10.38;2.35;;;;;;;17.99;61.88;101074.41;5054518;28;20044;-63
2022/10/25 01:17:00;;;;;;;8.52;2.50;;;;;;;17.98;61.59;101078.97;5054673;28;20059;-63
2022/10/25 01:20:00;;;;;;;8.25;2.08;;;;;;;17.97;61.60;101077.28;5058491;28;20041;-63
2022/10/25 01:22:36;;;;;;;8.90;2.05;;;;;;;17.97;61.88;101080.00;5074027;28;20114;-63
2022/10/25 01:25:37;;;;;;;7.35;2.00;;;;;;;17.95;61.49;101086.59;5074272;28;20032;-62
2022/10/25 01:28:10;;;;;;;15.52;3.10;;;;;;;17.98;61.88;101091.72;5073590;28;20559;-62
2022/10/25 01:30:58;;;;;;;7.07;2.17;;;;;;;17.98;62.09;101075.41;5073051;28;20453;-62
2022/10/25 01:33:38;;;;;;;11.75;2.08;;;;;;;17.99;62.08;101082.56;5073462;28;20110;-62
2022/10/25 01:36:19;;;;;;;10.60;2.58;;;;;;;18.02;61.63;101088.53;5074239;28;20121;-62
2022/10/25 01:39:05;;;;;;;6.90;2.05;;;;;;;18.05;61.90;101092.81;5070149;28;20427;-62
2022/10/25 01:41:43;;;;;;;11.73;2.70;;;;;;;18.08;62.02;101097.97;5054152;28;20099;-62
2022/10/25 01:44:27;;;;;;;9.18;2.10;;;;;;;18.11;61.67;101108.53;5057151;28;20068;-63
2022/10/25 01:47:03;;;;;;;6.90;1.98;;;;;;;18.15;61.79;101090.91;5054451;28;20041;-62
2022/10/25 01:49:44;;;;;;;;;;;;;;;18.14;61.55;101091.91;5055198;28;20037;-63
2022/10/25 01:52:12;;;;;;;7.50;2.13;;;;;;;18.18;61.86;101097.91;5054246;28;19967;-63
2022/10/25 01:54:41;;;;;;;10.48;1.83;;;;;;;18.15;61.58;101099.06;5054424;28;20041;-62
2022/10/25 01:57:37;;;;;;;9.05;2.22;;;;;;;18.15;62.00;101096.34;5054313;28;20453;-63
2022/10/25 02:00:13;;;;;;;10.18;1.90;;;;;;;18.14;61.73;101101.94;5069755;28;20036;-63
2022/10/25 02:03:17;;;;;;;10.23;2.80;;;;;;;18.13;61.95;101095.63;5074220;28;20040;-62
2022/10/25 02:05:56;;;;;;;8.98;2.55;;;;;;;18.15;61.89;101090.91;5074407;28;20086;-63
2022/10/25 02:08:47;;;;;;;8.35;2.15;;;;;;;18.14;62.10;101094.63;5073270;28;20449;-63
2022/10/25 02:11:25;;;;;;;6.38;2.05;;;;;;;18.16;62.07;101098.06;5054173;28;20438;-63
2022/10/25 02:14:10;;;;;;;10.05;2.28;;;;;;;18.18;61.72;101093.31;5053868;28;20437;-63
2022/10/25 02:16:43;;;;;;;6.57;1.90;;;;;;;18.20;61.96;101098.59;5054056;28;20555;-63
2022/10/25 02:19:19;;;;;;;6.13;2.00;;;;;;;18.19;61.63;101105.03;5054616;28;20048;-63
2022/10/25 02:21:48;;;;;;;9.45;1.95;;;;;;;18.20;62.12;101102.19;5053994;28;20417;-62
2022/10/25 02:24:22;;;;;;;5.85;1.92;;;;;;;18.20;61.63;101102.19;5053866;28;20067;-63
2022/10/25 02:26:50;;;;;;;6.00;1.50;;;;;;;18.24;61.75;101109.03;5053824;28;20029;-62
2022/10/25 02:29:18;;;;;;;12.30;1.98;;;;;;;18.26;61.81;101107.00;5061927;28;20300;-63
2022/10/25 02:31:45;;;;;;;8.57;2.10;;;;;;;18.27;61.80;101108.72;5073293;28;20040;-63
2022/10/25 02:34:14;;;;;;;5.20;1.70;;;;;;;18.25;61.77;101116.16;5073672;28;20044;-63
2022/10/25 02:36:41;;;;;;;6.25;1.95;;;;;;;18.25;61.75;101120.75;5073252;28;20068;-66
2022/10/25 02:39:08;;;;;;;9.82;1.90;;;;;;;18.26;62.03;101122.47;5072843;28;20052;-64
2022/10/25 02:41:34;;;;;;;4.25;2.05;;;;;;;18.25;61.94;101116.16;5073294;28;20048;-63
2022/10/25 02:44:02;;;;;;;8.05;2.03;;;;;;;18.24;61.59;101121.75;5073285;28;20048;-63
2022/10/25 02:46:29;;;;;;;7.90;2.40;;;;;;;18.25;61.60;101123.47;5073306;28;20049;-64
2022/10/25 02:48:55;;;;;;;8.18;2.42;;;;;;;18.26;61.75;101127.91;5072463;28;20436;-62
2022/10/25 02:51:22;;;;;;;6.20;1.65;;;;;;;18.27;61.81;101121.47;5073199;28;20049;-63
2022/10/25 02:53:49;;;;;;;9.50;2.13;;;;;;;18.25;61.73;101118.03;5072938;28;20051;-62
2022/10/25 02:56:18;;;;;;;5.07;1.67;;;;;;;18.26;61.88;101123.31;5072284;28;20487;-63
2022/10/25 02:58:46;;;;;;;3.67;1.77;;;;;;;18.24;61.68;101122.63;5072926;28;20044;-62
2022/10/25 03:01:14;;;;;;;6.57;1.80;;;;;;;18.22;61.82;101124.63;5073091;28;20102;-63
2022/10/25 03:03:41;;;;;;;8.25;2.05;;;;;;;18.22;61.48;101131.94;5072786;28;20074;-63
2022/10/25 03:06:11;;;;;;;7.60;2.00;;;;;;;18.18;61.51;101136.81;5058073;28;20297;-63
2022/10/25 03:08:39;;;;;;;5.65;1.88;;;;;;;18.18;61.53;101130.53;5052795;28;20060;-64
2022/10/25 03:11:07;;;;;;;10.40;1.90;;;;;;;18.16;61.93;101138.81;5069339;28;20522;-64
2022/10/25 03:13:34;;;;;;;5.30;1.88;;;;;;;18.15;61.92;101137.13;5072472;28;20045;-64
2022/10/25 03:16:02;;;;;;;6.28;1.80;;;;;;;18.12;61.57;101137.41;5058436;28;20071;-63
2022/10/25 03:18:28;;;;;;;6.65;1.92;;;;;;;18.12;61.70;101139.28;5052478;28;20094;-63
2022/10/25 03:21:00;;;;;;;12.25;2.13;;;;;;;18.11;61.77;101143.84;5052724;28;20082;-63
2022/10/25 03:23:27;;;;;;;6.28;1.98;;;;;;;18.06;61.41;101144.31;5052020;28;20041;-62
2022/10/25 03:25:56;;;;;;;8.73;1.70;;;;;;;18.04;61.64;101145.47;5053051;28;20041;-63
2022/10/25 03:28:26;;;;;;;6.78;1.73;;;;;;;18.02;61.56;101144.75;5034840;28;20052;-63
2022/10/25 03:30:53;;;;;;;7.72;2.35;;;;;;;18.01;61.50;101156.63;5052248;28;20041;-64
2022/10/25 03:33:20;;;;;;;6.93;1.92;;;;;;;17.98;61.53;101162.38;5052152;28;20045;-62
2022/10/25 03:35:52;;;;;;;6.45;2.00;;;;;;;17.93;61.75;101162.81;5053099;28;20055;-62
2022/10/25 03:38:19;;;;;;;5.25;1.70;;;;;;;17.93;61.58;101170.13;5052236;28;20053;-63
2022/10/25 03:40:46;;;;;;;8.82;2.00;;;;;;;17.91;61.34;101177.56;5065782;28;20048;-62
2022/10/25 03:43:13;;;;;;;8.98;2.22;;;;;;;17.91;61.53;101170.25;5071809;28;20037;-62
2022/10/25 03:45:43;;;;;;;6.38;1.95;;;;;;;17.90;61.35;101170.41;5063330;28;20043;-63
2022/10/25 03:48:10;;;;;;;15.18;2.75;;;;;;;17.89;61.70;101179.56;5051747;28;20102;-63
2022/10/25 03:50:37;;;;;;;7.82;2.15;;;;;;;17.84;61.38;101180.00;5051962;28;20037;-62
2022/10/25 03:53:04;;;;;;;9.15;2.20;;;;;;;17.81;61.25;101179.41;5051651;28;20045;-61
2022/10/25 03:55:36;;;;;;;9.10;2.55;;;;;;;17.76;61.24;101179.88;5059364;28;20078;-63
2022/10/25 03:58:02;;;;;;;6.50;2.13;;;;;;;17.70;61.64;101188.59;5071775;28;20140;-63
2022/10/25 04:00:29;;;;;;;10.73;2.38;;;;;;;17.67;61.79;101183.47;5071652;28;20053;-62
2022/10/25 04:02:58;;;;;;;6.70;2.42;;;;;;;17.63;61.39;101191.00;5071585;28;20045;-63
2022/10/25 04:05:28;;;;;;;7.47;2.30;;;;;;;17.62;61.34;101183.00;5063666;28;20044;-62
2022/10/25 04:07:55;;;;;;;7.50;2.70;;;;;;;17.60;61.46;101198.59;5030318;28;20041;-62
2022/10/25 04:10:21;;;;;;;8.05;2.13;;;;;;;17.57;61.83;101193.47;5031480;28;20041;-62
2022/10/25 04:12:51;;;;;;;6.50;1.83;;;;;;;17.56;61.53;101197.19;5031153;28;20087;-62
2022/10/25 04:15:23;;;;;;;11.48;2.10;;;;;;;17.50;61.73;101201.34;5036868;28;20087;-62
2022/10/25 04:17:50;;;;;;;5.43;2.25;;;;;;;17.48;61.88;101200.63;5050851;28;20052;-62
2022/10/25 04:20:18;;;;;;;8.40;2.00;;;;;;;17.45;61.79;101200.91;5051055;28;20044;-62
2022/10/25 04:22:44;;;;;;;7.32;2.28;;;;;;;17.43;61.72;101194.75;5051714;28;20045;-62
2022/10/25 04:25:15;;;;;;;6.88;2.75;;;;;;;17.42;61.85;101202.06;5047498;28;20483;-63
2022/10/25 04:27:42;;;;;;;7.20;2.00;;;;;;;17.42;61.68;101193.06;5034197;28;20046;-63
2022/10/25 04:30:09;;;;;;;10.13;4.10;;;;;;;17.40;61.40;101190.47;5035616;28;20399;-63
2022/10/25 04:32:35;;;;;;;9.85;2.13;;;;;;;17.41;61.53;101200.34;5035226;28;20545;-62
2022/10/25 04:35:06;;;;;;;4.45;2.47;;;;;;;17.39;61.60;101204.19;5040626;28;20102;-63
2022/10/25 04:37:32;;;;;;;7.88;2.42;;;;;;;17.39;61.52;101202.34;5055766;28;20083;-63
2022/10/25 04:39:59;;;;;;;7.28;2.38;;;;;;;17.37;61.80;101209.78;5054617;28;20037;-63
2022/10/25 04:42:25;;;;;;;7.28;2.42;;;;;;;17.33;61.75;101213.78;5054912;28;20049;-62
2022/10/25 04:44:52;;;;;;;7.43;2.35;;;;;;;17.32;61.69;101213.94;5053416;28;20045;-63
2022/10/25 04:47:18;;;;;;;9.20;2.30;;;;;;;17.30;61.81;101205.06;5055008;28;20515;-62
2022/10/25 04:49:45;;;;;;;4.53;2.30;;;;;;;17.30;61.68;101208.63;5055155;28;20041;-62
2022/10/25 04:52:11;;;;;;;6.88;2.38;;;;;;;17.27;61.88;101206.22;5054841;28;20033;-63
2022/10/25 04:54:42;;;;;;;5.80;2.10;;;;;;;17.27;61.93;101213.50;5054479;28;20527;-63
2022/10/25 04:57:08;;;;;;;5.20;2.50;;;;;;;17.28;61.89;101220.66;5054465;28;20052;-62
2022/10/25 04:59:35;;;;;;;5.18;2.17;;;;;;;17.27;61.89;101224.34;5054708;28;20037;-63
2022/10/25 05:02:01;;;;;;;5.57;2.42;;;;;;;17.27;61.56;101225.22;5054816;28;20037;-63
2022/10/25 05:04:32;;;;;;;9.88;2.40;;;;;;;17.25;62.00;101223.63;5053661;28;20069;-63
2022/10/25 05:06:58;;;;;;;7.05;2.28;;;;;;;17.22;61.90;101218.50;5056018;28;20052;-63
2022/10/25 05:09:25;;;;;;;6.65;2.80;;;;;;;17.21;61.87;101224.94;5052727;28;20057;-63
2022/10/25 05:11:51;;;;;;;8.90;2.70;;;;;;;17.17;61.97;101229.78;5054434;28;20040;-63
2022/10/25 05:14:22;;;;;;;7.50;2.42;;;;;;;17.16;61.89;101228.06;5051537;28;20607;-63
2022/10/25 05:16:48;;;;;;;9.35;2.42;;;;;;;17.11;62.06;101235.78;5034633;28;20581;-63
2022/10/25 05:19:15;;;;;;;5.97;2.30;;;;;;;17.10;61.84;101231.34;5034559;28;20486;-62
2022/10/25 05:21:41;;;;;;;8.05;3.08;;;;;;;17.08;61.80;101231.47;5034140;28;20092;-63
2022/10/25 05:24:09;;;;;;;11.95;2.90;;;;;;;17.07;62.14;101232.47;5034446;28;20369;-62
2022/10/25 05:26:36;;;;;;;8.07;3.10;;;;;;;17.04;62.16;101232.75;5052025;28;20492;-62
2022/10/25 05:29:03;;;;;;;6.28;3.42;;;;;;;17.03;61.77;101238.31;5054121;28;20112;-62
2022/10/25 05:31:37;;;;;;;8.55;3.03;;;;;;;17.04;61.87;101240.88;5052855;28;20509;-65
2022/10/25 05:34:09;;;;;;;9.25;2.97;;;;;;;17.01;62.34;101248.44;5053617;28;20033;-62
2022/10/25 05:36:35;;;;;;;5.85;2.65;;;;;;;17.00;61.90;101258.44;5034275;28;20128;-62
2022/10/25 05:39:02;;;;;;;6.70;2.85;;;;;;;17.01;62.13;101259.31;5033126;28;20038;-62
2022/10/25 05:41:28;;;;;;;6.68;3.03;;;;;;;17.02;62.05;101252.88;5052589;28;20498;-62
2022/10/25 05:44:05;;;;;;;5.85;2.25;;;;;;;17.01;62.16;101262.00;5053639;28;20045;-63
2022/10/25 05:46:32;;;;;;;9.13;2.80;;;;;;;17.00;62.28;101263.88;5053800;28;20060;-63
2022/10/25 05:48:59;;;;;;;9.27;2.88;;;;;;;17.00;61.96;101269.31;5053651;28;20045;-62
2022/10/25 05:51:28;;;;;;;10.95;2.70;;;;;;;16.99;61.99;101266.72;5053772;28;20048;-62
2022/10/25 05:54:12;;;;;;;7.38;2.33;;;;;;;16.95;62.28;101263.44;5051884;28;20076;-64
2022/10/25 05:56:40;;;;;;;7.85;2.60;;;;;;;16.95;62.33;101270.72;5033172;28;20049;-62
2022/10/25 05:59:11;;;;;;;9.55;2.45;;;;;;;16.92;62.17;101271.00;5033246;28;20557;-62
2022/10/25 06:01:40;;;;;;;5.75;2.38;;;;;;;16.90;62.25;101267.56;5033833;28;20045;-62
2022/10/25 06:04:11;;;;;;;7.05;2.45;;;;;;;16.88;62.28;101275.84;5035105;28;20037;-62
2022/10/25 06:06:39;;;;;;;8.70;2.80;;;;;;;16.89;62.02;101274.00;5032918;28;20057;-62
2022/10/25 06:09:06;;;;;;;7.55;3.00;;;;;;;16.87;62.18;101279.56;5042502;28;20044;-62
2022/10/25 06:11:33;;;;;;;19.08;3.53;;;;;;;16.87;62.46;101275.97;5072313;28;20048;-63
2022/10/25 06:14:09;;;;;;;10.35;2.55;;;;;;;16.86;62.25;101282.41;5072787;28;20052;-63
2022/10/25 06:16:36;;;;;;;6.30;2.05;;;;;;;16.85;62.38;101292.41;5063062;28;20041;-62
2022/10/25 06:19:03;;;;;;;5.40;2.20;;;;;;;16.86;62.12;101298.69;5063937;28;20040;-63
2022/10/25 06:21:29;;;;;;;11.35;2.75;;;;;;;16.87;62.17;101303.13;5071822;28;20049;-63
2022/10/25 06:24:12;;;;;;;8.38;2.63;;;;;;;16.83;62.70;101313.38;5072877;28;20098;-64
2022/10/25 06:26:38;;;;;;;8.75;2.40;;;;;;;16.85;62.61;101316.81;5072295;28;20040;-64
2022/10/25 06:29:05;;;;;;;6.45;2.70;;;;;;;16.84;62.33;101312.38;5068183;28;20483;-64
2022/10/25 06:31:32;;;;;;;7.65;2.67;;;;;;;16.86;62.43;101314.97;5052035;28;20060;-63
2022/10/25 06:34:01;;;;;;;9.48;2.72;;;;;;;16.86;62.67;101315.81;5071657;28;20090;-64
2022/10/25 06:36:30;;;;;;;8.75;3.35;;;;;;;16.87;62.80;101313.97;5072324;28;20067;-64
2022/10/25 06:38:56;;;;;;;7.82;2.28;;;;;;;16.88;62.70;101321.97;5069375;28;20066;-64
2022/10/25 06:41:31;;;;;;;9.68;2.78;;;;;;;16.90;62.87;101325.41;5071032;28;20098;-64
2022/10/25 06:44:23;;;;;;;5.28;2.85;;;;;;;16.91;62.60;101331.69;5070931;28;20556;-66
2022/10/25 06:46:49;;;;;;;14.00;3.08;;;;;;;16.92;62.58;101338.81;5071654;28;20033;-63
2022/10/25 06:49:36;;;;;;;5.65;2.50;;;;;;;16.91;62.67;101337.09;5070898;28;20129;-63
2022/10/25 06:52:02;;;;;;;10.90;3.47;;;;;;;16.91;62.85;101340.69;5072260;28;20113;-63
2022/10/25 06:54:30;;;;;;;9.35;3.35;;;;;;;16.90;63.00;101336.25;5071629;28;20048;-63
2022/10/25 06:56:57;;;;;;;9.38;3.65;;;;;;;16.88;62.85;101340.09;5059956;28;20125;-65
2022/10/25 06:59:24;;;;;;;11.30;3.97;;;;;;;16.87;63.05;101341.94;5071742;28;20519;-63
2022/10/25 07:01:51;;;;;;;10.55;3.33;;;;;;;16.90;62.63;101346.25;5055035;28;20049;-63
2022/10/25 07:04:19;;;;;;;9.48;3.85;;;;;;;16.91;62.87;101359.66;5054508;28;20039;-63
2022/10/25 07:06:46;;;;;;;7.43;3.83;;;;;;;16.93;63.05;101352.25;5072950;28;20544;-63
2022/10/25 07:09:18;;;;;;;14.32;4.70;;;;;;;16.97;62.95;101358.25;5072784;28;20518;-63
2022/10/25 07:11:44;;;;;;;7.88;4.10;;;;;;;17.00;62.74;101361.56;5071967;28;20068;-62
2022/10/25 07:14:15;;;;;;;12.93;4.43;;;;;;;17.03;63.02;101366.72;5068744;28;20048;-62
2022/10/25 07:16:42;;;;;;;11.80;4.30;;;;;;;17.05;63.16;101359.28;5069062;28;20067;-62
2022/10/25 07:19:09;;;;;;;11.80;4.45;;;;;;;17.09;63.07;101359.88;5069356;28;20098;-64
2022/10/25 07:21:36;;;;;;;11.38;4.05;;;;;;;17.13;63.07;101361.34;5069766;28;20072;-63
2022/10/25 07:24:09;;;;;;;8.65;4.47;;;;;;;17.17;62.91;101361.91;5069218;28;20545;-64
2022/10/25 07:26:36;;;;;;;11.82;5.18;;;;;;;17.20;62.74;101367.06;5069750;28;20047;-62
2022/10/25 07:29:03;;;;;;;12.27;5.10;;;;;;;17.23;62.61;101364.94;5070091;28;20045;-62
2022/10/25 07:31:33;;;;;;;11.88;4.55;;;;;;;17.24;63.04;101373.94;5048228;28;20044;-64
2022/10/25 07:34:04;;;;;;;11.27;4.68;;;;;;;17.25;63.02;101378.38;5070722;28;20161;-64
2022/10/25 07:36:30;;;;;;;9.32;4.57;;;;;;;17.28;62.70;101378.09;5069545;28;20575;-64
2022/10/25 07:38:57;;;;;;;11.65;4.80;;;;;;;17.30;63.16;101373.38;5071480;28;20086;-63
2022/10/25 07:41:25;;;;;;;11.18;5.32;;;;;;;17.31;62.69;101384.09;5054801;28;20044;-62
2022/10/25 07:43:51;;;;;;;13.45;5.25;;;;;;;17.34;62.95;101385.69;5072508;28;20044;-63
2022/10/25 07:46:19;;;;;;;11.02;5.18;;;;;;;17.37;62.89;101382.69;5073020;28;20098;-63
2022/10/25 07:48:46;;;;;;;8.13;4.85;;;;;;;17.39;62.70;101384.25;5072473;28;20045;-63
2022/10/25 07:51:15;;;;;;;9.95;5.05;;;;;;;17.42;62.96;101391.25;5072548;28;20494;-63
2022/10/25 07:53:41;;;;;;;10.88;5.32;;;;;;;17.45;62.91;101390.97;5072393;28;20041;-63
2022/10/25 07:56:14;;;;;;;9.85;5.25;;;;;;;17.48;63.05;101388.84;5054770;28;20052;-63
2022/10/25 07:58:47;;;;;;;7.63;5.30;;;;;;;17.53;63.19;101387.56;5072520;28;20398;-64
2022/10/25 08:01:19;;;;;;;13.43;5.35;;;;;;;17.55;62.99;101391.84;5072989;28;20090;-62
2022/10/25 08:03:46;;;;;;;10.68;5.55;;;;;;;17.61;62.88;101396.72;5059048;28;20063;-63
2022/10/25 08:06:13;;;;;;;11.43;5.72;;;;;;;17.64;63.19;101401.88;5076518;28;20040;-63
2022/10/25 08:08:41;;;;;;;10.93;5.50;;;;;;;17.70;62.78;101400.47;5076209;28;20041;-62
2022/10/25 08:11:08;;;;;;;9.85;5.00;;;;;;;17.75;63.25;101407.22;5057660;28;20054;-63
2022/10/25 08:13:36;;;;;;;12.98;5.95;;;;;;;17.80;63.15;101409.50;5036402;28;20049;-63
2022/10/25 08:16:05;;;;;;;10.27;5.38;;;;;;;17.85;63.28;101407.25;5036713;28;20042;-63
2022/10/25 08:18:32;;;;;;;12.48;5.18;;;;;;;17.91;62.84;101413.97;5034661;28;20115;-63
2022/10/25 08:21:03;;;;;;;14.30;5.32;;;;;;;17.95;63.14;101409.97;5050006;28;20057;-63
2022/10/25 08:23:31;;;;;;;10.75;5.22;;;;;;;17.99;62.61;101414.09;5055930;28;20391;-62
2022/10/25 08:26:00;;;;;;;9.45;5.40;;;;;;;18.02;62.95;101414.69;5039613;28;20072;-64
2022/10/25 08:28:27;;;;;;;9.73;4.88;;;;;;;18.05;62.66;101421.69;5035383;28;20057;-63
2022/10/25 08:30:54;;;;;;;8.82;4.57;;;;;;;18.08;62.93;101422.25;5034462;28;20041;-63
2022/10/25 08:33:21;;;;;;;11.60;5.22;;;;;;;18.13;62.65;101415.53;5034591;28;20095;-63
2022/10/25 08:35:48;;;;;;;12.02;4.80;;;;;;;18.16;62.36;101413.38;5035663;28;20542;-62
2022/10/25 08:38:14;;;;;;;11.45;4.75;;;;;;;18.18;62.78;101421.41;5033559;28;20053;-63
2022/10/25 08:40:57;;;;;;;9.27;4.65;;;;;;;18.21;62.70;101418.38;5035082;28;20488;-63
2022/10/25 08:43:33;;;;;;;9.18;4.40;;;;;;;18.27;62.39;101409.66;5035457;28;20056;-64
2022/10/25 08:46:08;;;;;;;8.98;5.07;;;;;;;18.31;62.65;101421.97;5035463;28;20076;-63
2022/10/25 08:48:41;;;;;;;9.70;4.53;;;;;;;18.37;62.50;101427.66;5033888;28;20041;-63
2022/10/25 08:51:32;;;;;;;11.02;4.70;;;;;;;18.40;62.17;101429.25;5035308;28;20107;-63
2022/10/25 08:54:19;;;;;;;10.63;4.25;;;;;;;18.43;62.08;101434.38;5033688;28;20048;-63
2022/10/25 08:56:49;;;;;;;8.80;4.40;;;;;;;18.48;62.29;101442.97;5035167;28;20133;-64
2022/10/25 08:59:39;;;;;;;10.50;4.18;;;;;;;18.54;62.35;101433.38;5040422;28;20050;-63
2022/10/25 09:02:17;;;;;;;10.02;4.35;;;;;;;18.56;61.89;101442.25;5035032;28;20610;-63
2022/10/25 09:04:48;;;;;;;11.57;4.32;;;;;;;18.58;61.93;101430.25;5042086;28;20077;-70
2022/10/25 09:07:33;;;;;;;6.93;4.20;;;;;;;18.57;61.99;101433.06;5044297;28;20052;-65
2022/10/25 09:10:21;;;;;;;10.65;4.38;;;;;;;18.59;61.74;101444.69;5036587;28;20061;-64
2022/10/25 09:13:28;;;;;;;9.25;4.65;;;;;;;18.62;62.10;101448.03;5053606;28;20041;-65
2022/10/25 09:16:13;;;;;;;;;;;;;;;18.66;61.96;101448.59;5053562;28;20110;-65
2022/10/25 09:18:46;;;;;;;9.98;4.70;;;;;;;18.70;61.50;101467.19;5054234;28;19925;-64
2022/10/25 09:21:55;;;;;;;8.27;4.78;;;;;;;18.71;61.65;101462.59;5052609;28;20049;-65
2022/10/25 09:24:32;;;;;;;11.75;4.40;;;;;;;18.77;61.61;101461.16;5019789;28;20045;-65
2022/10/25 09:27:03;;;;;;;7.82;4.15;;;;;;;18.80;61.54;101469.88;5033139;28;20045;-65
2022/10/25 09:29:37;;;;;;;11.13;4.40;;;;;;;18.89;61.90;101468.13;5053719;28;20036;-64
2022/10/25 09:32:17;;;;;;;9.43;3.80;;;;;;;18.97;61.58;101466.41;5035616;28;20424;-65
2022/10/25 09:34:44;;;;;;;8.93;3.53;;;;;;;19.04;61.62;101469.38;5054590;28;20057;-65
2022/10/25 09:37:16;;;;;;;11.00;3.80;;;;;;;19.10;61.34;101479.69;5036268;28;20040;-64
2022/10/25 09:39:53;;;;;;;10.05;4.53;;;;;;;19.16;61.33;101476.34;5058175;28;20048;-65
2022/10/25 09:42:36;;;;;;;9.80;4.25;;;;;;;19.26;61.39;101474.44;5057510;28;20544;-65
2022/10/25 09:45:23;;;;;;;9.00;3.53;;;;;;;19.37;61.07;101476.16;5059347;28;20052;-65
2022/10/25 09:48:07;;;;;;;7.10;3.30;;;;;;;19.46;61.29;101482.56;5036696;28;20045;-65
2022/10/25 09:50:41;;;;;;;9.38;2.80;;;;;;;19.53;60.78;101481.84;5047182;28;20048;-65
2022/10/25 09:53:13;;;;;;;10.10;3.15;;;;;;;19.62;60.84;101480.91;5056948;28;20534;-65
2022/10/25 09:55:53;;;;;;;12.30;3.40;;;;;;;19.70;60.93;101477.44;5074610;28;20068;-66
2022/10/25 09:58:26;;;;;;;7.28;3.20;;;;;;;19.78;60.86;101485.69;5056590;28;20448;-66
2022/10/25 10:00:55;;;;;;;6.03;2.95;;;;;;;19.88;60.26;101477.47;5060792;28;20104;-66
2022/10/25 10:03:27;;;;;;;7.70;2.85;;;;;;;19.97;60.54;101481.97;5072820;28;20044;-65
2022/10/25 10:06:07;;;;;;;7.25;2.85;;;;;;;20.02;60.24;101489.69;5056898;28;20039;-66
2022/10/25 10:08:35;;;;;;;9.40;3.42;;;;;;;20.03;59.88;101494.13;5056418;28;20525;-65
2022/10/25 10:11:04;;;;;;;8.93;3.38;;;;;;;19.97;59.63;101492.88;5059194;28;20095;-65
2022/10/25 10:13:46;;;;;;;10.75;3.00;;;;;;;19.92;59.31;101496.06;5054095;28;20052;-65
2022/10/25 10:16:35;;;;;;;5.30;2.60;;;;;;;19.90;59.57;101491.78;5054288;28;20037;-65
2022/10/25 10:19:20;;;;;;;10.57;3.10;;;;;;;19.89;59.35;101503.72;5053828;28;20487;-65
2022/10/25 10:21:57;;;;;;;7.28;2.88;;;;;;;19.87;59.11;101506.59;5054150;28;20110;-64
2022/10/25 10:24:31;;;;;;;8.15;2.78;;;;;;;19.86;59.28;101507.59;5053521;28;20095;-64
2022/10/25 10:27:01;;;;;;;7.43;2.70;;;;;;;19.88;59.17;101508.31;5036294;28;20045;-63
2022/10/25 10:29:30;;;;;;;7.60;2.90;;;;;;;19.89;59.20;101510.00;5037167;28;20044;-64
2022/10/25 10:32:02;;;;;;;10.27;2.85;;;;;;;19.90;59.46;101509.00;5035967;28;20033;-63
2022/10/25 10:34:51;;;;;;;7.47;2.80;;;;;;;19.91;59.24;101505.28;5053910;28;20487;-64
2022/10/25 10:37:22;;;;;;;10.82;2.88;;;;;;;19.92;59.15;101514.31;5053615;28;20037;-64
2022/10/25 10:39:53;;;;;;;7.07;2.92;;;;;;;19.91;58.89;101505.28;5057633;28;20623;-64
2022/10/25 10:42:31;;;;;;;6.25;2.60;;;;;;;19.92;58.98;101504.25;5069067;28;20049;-63
2022/10/25 10:45:07;;;;;;;6.55;2.33;;;;;;;19.93;58.99;101510.56;5055881;28;20064;-63
2022/10/25 10:47:41;;;;;;;7.75;2.70;;;;;;;19.93;59.18;101514.16;5071881;28;20533;-63
2022/10/25 10:50:31;;;;;;;6.88;2.50;;;;;;;19.93;58.94;101514.16;5055792;28;20106;-65
2022/10/25 10:53:05;;;;;;;8.95;2.70;;;;;;;19.96;59.10;101508.38;5072267;28;20060;-63
2022/10/25 10:55:49;;;;;;;4.72;2.17;;;;;;;19.96;58.82;101513.84;5073353;28;20041;-64
2022/10/25 10:58:21;;;;;;;7.00;2.10;;;;;;;20.02;59.03;101519.69;5044230;28;20495;-63
2022/10/25 11:00:59;;;;;;;9.43;2.55;;;;;;;20.03;58.82;101514.09;5053217;28;20491;-64
2022/10/25 11:03:42;;;;;;;9.70;2.20;;;;;;;20.04;59.10;101521.25;5053087;28;20072;-64
2022/10/25 11:06:33;;;;;;;9.35;2.50;;;;;;;20.08;58.60;101519.97;5035344;28;20041;-64
2022/10/25 11:09:11;;;;;;;6.32;2.40;;;;;;;20.09;58.65;101524.41;5051570;28;20044;-64
2022/10/25 11:11:38;;;;;;;5.10;2.03;;;;;;;20.12;58.69;101523.25;5053106;28;20398;-64
2022/10/25 11:14:11;;;;;;;7.60;2.55;;;;;;;20.14;58.71;101518.50;5053143;28;20037;-64
2022/10/25 11:16:40;;;;;;;5.93;2.17;;;;;;;20.17;58.69;101527.22;5055064;28;20499;-65
2022/10/25 11:19:07;;;;;;;7.13;2.72;;;;;;;20.19;58.34;101527.06;5052647;28;20083;-64
2022/10/25 11:21:39;;;;;;;5.45;2.30;;;;;;;20.17;58.44;101529.09;5034915;28;20465;-64
2022/10/25 11:24:43;;;;;;;6.88;2.42;;;;;;;20.15;58.54;101528.38;5053094;28;20037;-65
2022/10/25 11:27:27;;;;;;;9.32;2.55;;;;;;;20.18;58.25;101526.22;5053928;28;20074;-65
2022/10/25 11:30:11;;;;;;;8.45;2.45;;;;;;;20.21;58.12;101525.91;5052546;28;20446;-64
2022/10/25 11:32:52;;;;;;;6.40;2.33;;;;;;;20.27;58.29;101527.16;5052383;28;20091;-64
2022/10/25 11:35:43;;;;;;;6.75;2.70;;;;;;;20.30;58.32;101529.56;5052317;28;20461;-64
2022/10/25 11:38:38;;;;;;;7.78;2.30;;;;;;;20.34;58.09;101517.31;5053312;28;20066;-64
2022/10/25 11:41:29;;;;;;;8.25;2.50;;;;;;;20.41;58.14;101528.50;5072185;28;20056;-64
2022/10/25 11:44:34;;;;;;;9.50;2.88;;;;;;;20.55;58.37;101523.34;5072072;28;20471;-64
2022/10/25 11:47:27;;;;;;;6.00;2.13;;;;;;;20.68;58.22;101522.94;5051907;28;20037;-65
2022/10/25 11:50:00;;;;;;;7.32;2.40;;;;;;;20.75;58.04;101517.69;5052919;28;20041;-64